createdAt,value
2022-11-29T00:00:31.564Z,84
2022-11-29T00:01:38.762Z,84
2022-11-29T00:02:46.067Z,83
2022-11-29T00:03:53.142Z,83
2022-11-29T00:05:00.285Z,83
2022-11-29T00:06:07.680Z,83
2022-11-29T00:07:14.891Z,83
2022-11-29T00:08:22.065Z,83
2022-11-29T00:09:29.262Z,83
2022-11-29T00:10:36.326Z,83
2022-11-29T00:11:43.458Z,84
2022-11-29T00:12:55.818Z,83
2022-11-29T00:14:02.860Z,83
2022-11-29T00:15:10.239Z,83
2022-11-29T00:16:17.658Z,83
2022-11-29T00:17:24.889Z,83
2022-11-29T00:18:31.820Z,83
2022-11-29T00:19:39.106Z,83
2022-11-29T00:20:46.302Z,83
2022-11-29T00:21:53.242Z,83
2022-11-29T00:23:00.422Z,83
2022-11-29T00:24:07.911Z,83
2022-11-29T00:25:15.050Z,83
2022-11-29T00:26:22.226Z,83
2022-11-29T00:27:29.467Z,84
2022-11-29T00:28:36.418Z,83
2022-11-29T00:29:43.563Z,84
2022-11-29T00:30:50.940Z,84
2022-11-29T00:31:58.063Z,84
2022-11-29T00:33:05.106Z,83
2022-11-29T00:34:12.010Z,84
2022-11-29T00:35:19.264Z,83
2022-11-29T00:36:26.366Z,83
2022-11-29T00:37:33.658Z,83
2022-11-29T00:38:40.712Z,83
2022-11-29T00:39:47.834Z,83
2022-11-29T00:40:54.951Z,83
2022-11-29T00:42:02.082Z,84
2022-11-29T00:43:09.062Z,83
2022-11-29T00:44:20.036Z,84
2022-11-29T00:45:23.911Z,84
2022-11-29T00:46:30.935Z,83
2022-11-29T00:47:38.106Z,84
2022-11-29T00:48:45.373Z,84
2022-11-29T00:49:52.350Z,84
2022-11-29T00:50:59.581Z,84
2022-11-29T00:52:06.957Z,84
2022-11-29T00:53:14.054Z,84
2022-11-29T00:54:21.190Z,84
2022-11-29T00:55:28.371Z,84
2022-11-29T00:56:35.562Z,84
2022-11-29T00:57:43.145Z,84
2022-11-29T00:58:53.750Z,84
2022-11-29T01:00:01.097Z,84
2022-11-29T01:01:08.598Z,84
2022-11-29T01:02:15.675Z,84
2022-11-29T01:03:22.735Z,84
2022-11-29T01:04:29.945Z,85
2022-11-29T01:05:37.475Z,85
2022-11-29T01:06:44.859Z,85
2022-11-29T01:07:55.103Z,85
2022-11-29T01:09:02.126Z,84
2022-11-29T01:10:09.066Z,84
2022-11-29T01:11:16.226Z,84
2022-11-29T01:12:25.967Z,84
2022-11-29T01:13:33.158Z,84
2022-11-29T01:14:40.343Z,84
2022-11-29T01:15:47.434Z,84
2022-11-29T01:16:54.573Z,84
2022-11-29T01:18:01.755Z,84
2022-11-29T01:19:08.698Z,84
2022-11-29T01:20:15.830Z,84
2022-11-29T01:21:23.134Z,84
2022-11-29T01:22:30.079Z,84
2022-11-29T01:23:40.293Z,84
2022-11-29T01:24:47.495Z,84
2022-11-29T01:25:54.678Z,84
2022-11-29T01:27:06.746Z,84
2022-11-29T01:28:13.834Z,84
2022-11-29T01:29:20.994Z,84
2022-11-29T01:30:28.365Z,84
2022-11-29T01:31:35.406Z,84
2022-11-29T01:32:42.466Z,84
2022-11-29T01:33:49.618Z,84
2022-11-29T01:34:56.830Z,84
2022-11-29T01:36:03.918Z,84
2022-11-29T01:37:11.024Z,84
2022-11-29T01:38:18.121Z,84
2022-11-29T01:39:25.147Z,84
2022-11-29T01:40:32.315Z,84
2022-11-29T01:41:39.450Z,84
2022-11-29T01:42:46.634Z,84
2022-11-29T01:43:53.961Z,84
2022-11-29T01:45:06.048Z,84
2022-11-29T01:46:18.177Z,84
2022-11-29T01:47:25.286Z,84
2022-11-29T01:48:32.641Z,84
2022-11-29T01:49:39.634Z,84
2022-11-29T01:50:46.718Z,85
2022-11-29T01:51:53.890Z,84
2022-11-29T01:53:09.102Z,84
2022-11-29T01:54:16.131Z,84
2022-11-29T01:55:23.234Z,84
2022-11-29T01:56:30.419Z,84
2022-11-29T01:57:37.739Z,84
2022-11-29T01:58:44.794Z,84
2022-11-29T01:59:51.874Z,84
2022-11-29T02:00:59.030Z,84
2022-11-29T02:02:06.295Z,84
2022-11-29T02:03:16.222Z,84
2022-11-29T02:04:23.351Z,84
2022-11-29T02:05:31.563Z,84
2022-11-29T02:06:38.736Z,84
2022-11-29T02:07:45.886Z,84
2022-11-29T02:08:53.018Z,84
2022-11-29T02:10:00.104Z,84
2022-11-29T02:11:07.083Z,84
2022-11-29T02:12:21.834Z,84
2022-11-29T02:13:29.119Z,84
2022-11-29T02:14:36.262Z,84
2022-11-29T02:15:53.643Z,84
2022-11-29T02:17:05.945Z,83
2022-11-29T02:18:18.386Z,83
2022-11-29T02:19:30.684Z,83
2022-11-29T02:20:37.882Z,83
2022-11-29T02:21:50.170Z,84
2022-11-29T02:23:05.330Z,84
2022-11-29T02:24:20.488Z,83
2022-11-29T02:25:38.009Z,84
2022-11-29T02:26:55.522Z,83
2022-11-29T02:28:10.355Z,83
2022-11-29T02:29:27.710Z,83
2022-11-29T02:30:45.071Z,83
2022-11-29T02:32:02.367Z,83
2022-11-29T02:33:19.814Z,83
2022-11-29T02:34:31.811Z,83
2022-11-29T02:35:44.162Z,83
2022-11-29T02:36:59.558Z,83
2022-11-29T02:38:14.659Z,84
2022-11-29T02:39:31.883Z,84
2022-11-29T02:40:47.242Z,84
2022-11-29T02:41:59.510Z,84
2022-11-29T02:43:14.102Z,84
2022-11-29T02:44:26.474Z,84
2022-11-29T02:45:43.826Z,84
2022-11-29T02:46:56.074Z,84
2022-11-29T02:48:06.173Z,84
2022-11-29T02:49:21.466Z,84
2022-11-29T02:50:28.575Z,84
2022-11-29T02:51:35.636Z,84
2022-11-29T02:52:52.897Z,84
2022-11-29T02:54:08.138Z,84
2022-11-29T02:55:20.310Z,84
2022-11-29T02:56:37.617Z,84
2022-11-29T02:57:44.898Z,84
2022-11-29T02:59:02.290Z,84
2022-11-29T03:00:09.150Z,84
2022-11-29T03:01:21.923Z,84
2022-11-29T03:02:34.408Z,84
2022-11-29T03:03:46.932Z,84
2022-11-29T03:04:59.087Z,84
2022-11-29T03:06:13.818Z,84
2022-11-29T03:07:29.690Z,84
2022-11-29T03:08:47.099Z,84
2022-11-29T03:09:59.356Z,84
2022-11-29T03:11:12.685Z,84
2022-11-29T03:12:25.009Z,84
2022-11-29T03:13:34.765Z,84
2022-11-29T03:14:47.125Z,84
2022-11-29T03:15:54.070Z,84
2022-11-29T03:17:01.230Z,84
2022-11-29T03:18:10.686Z,84
2022-11-29T03:19:22.878Z,84
2022-11-29T03:20:33.149Z,84
2022-11-29T03:21:46.094Z,84
2022-11-29T03:23:01.215Z,84
2022-11-29T03:24:19.824Z,84
2022-11-29T03:25:30.245Z,84
2022-11-29T03:26:42.421Z,84
2022-11-29T03:27:49.495Z,84
2022-11-29T03:28:56.589Z,84
2022-11-29T03:30:06.817Z,84
2022-11-29T03:31:14.324Z,84
2022-11-29T03:32:29.769Z,84
2022-11-29T03:33:44.893Z,84
2022-11-29T03:34:56.906Z,84
2022-11-29T03:36:01.693Z,84
2022-11-29T03:37:14.237Z,83
2022-11-29T03:38:21.433Z,83
2022-11-29T03:39:33.646Z,83
2022-11-29T03:40:40.869Z,83
2022-11-29T03:41:58.233Z,83
2022-11-29T03:43:08.193Z,83
2022-11-29T03:44:23.445Z,83
2022-11-29T03:45:35.689Z,83
2022-11-29T03:46:47.997Z,83
2022-11-29T03:47:58.185Z,83
2022-11-29T03:49:05.281Z,83
2022-11-29T03:50:14.773Z,83
2022-11-29T03:51:22.000Z,83
2022-11-29T03:52:37.345Z,83
2022-11-29T03:53:52.586Z,83
2022-11-29T03:54:59.782Z,83
2022-11-29T03:56:11.835Z,83
2022-11-29T03:57:29.130Z,83
2022-11-29T03:58:43.929Z,83
2022-11-29T03:59:56.280Z,83
2022-11-29T04:01:06.536Z,83
2022-11-29T04:02:18.551Z,83
2022-11-29T04:03:35.922Z,83
2022-11-29T04:04:48.121Z,83
2022-11-29T04:06:05.554Z,83
2022-11-29T04:07:23.260Z,83
2022-11-29T04:08:37.884Z,83
2022-11-29T04:09:55.331Z,83
2022-11-29T04:11:12.977Z,83
2022-11-29T04:12:30.241Z,83
2022-11-29T04:13:47.605Z,83
2022-11-29T04:15:04.925Z,83
2022-11-29T04:16:17.117Z,83
2022-11-29T04:17:34.308Z,83
2022-11-29T04:18:46.497Z,83
2022-11-29T04:19:56.679Z,83
2022-11-29T04:21:08.731Z,83
2022-11-29T04:22:26.028Z,83
2022-11-29T04:23:43.417Z,83
2022-11-29T04:24:58.779Z,83
2022-11-29T04:26:16.608Z,83
2022-11-29T04:27:32.094Z,83
2022-11-29T04:28:49.473Z,83
2022-11-29T04:29:59.209Z,83
2022-11-29T04:31:11.939Z,83
2022-11-29T04:32:24.053Z,83
2022-11-29T04:33:36.142Z,83
2022-11-29T04:34:53.621Z,83
2022-11-29T04:36:05.805Z,83
2022-11-29T04:37:23.482Z,83
2022-11-29T04:38:30.572Z,83
2022-11-29T04:39:45.925Z,83
2022-11-29T04:41:03.177Z,83
2022-11-29T04:42:20.509Z,83
2022-11-29T04:43:37.752Z,83
2022-11-29T04:44:55.010Z,83
2022-11-29T04:46:12.777Z,83
2022-11-29T04:47:27.944Z,83
2022-11-29T04:48:38.152Z,83
2022-11-29T04:49:55.508Z,83
2022-11-29T04:51:13.509Z,83
2022-11-29T04:52:28.488Z,83
2022-11-29T04:53:40.848Z,83
2022-11-29T04:54:52.992Z,83
2022-11-29T04:56:08.040Z,83
2022-11-29T04:57:17.752Z,83
2022-11-29T04:58:24.848Z,83
2022-11-29T04:59:42.336Z,83
2022-11-29T05:00:59.736Z,83
2022-11-29T05:02:17.455Z,83
2022-11-29T05:03:32.453Z,83
2022-11-29T05:04:42.931Z,83
2022-11-29T05:05:55.488Z,83
2022-11-29T05:07:02.597Z,83
2022-11-29T05:08:17.957Z,83
2022-11-29T05:09:33.017Z,83
2022-11-29T05:10:45.286Z,83
2022-11-29T05:11:55.089Z,83
2022-11-29T05:13:10.169Z,83
2022-11-29T05:14:22.441Z,83
2022-11-29T05:15:37.247Z,83
2022-11-29T05:16:54.569Z,83
2022-11-29T05:18:11.720Z,83
2022-11-29T05:19:29.193Z,83
2022-11-29T05:20:41.329Z,83
2022-11-29T05:21:56.657Z,83
2022-11-29T05:23:13.913Z,83
2022-11-29T05:24:28.680Z,84
2022-11-29T05:25:46.062Z,84
2022-11-29T05:26:58.290Z,84
2022-11-29T05:28:09.763Z,84
2022-11-29T05:29:22.595Z,84
2022-11-29T05:30:29.768Z,84
2022-11-29T05:31:41.989Z,84
2022-11-29T05:32:52.261Z,84
2022-11-29T05:33:59.357Z,84
2022-11-29T05:35:14.588Z,84
2022-11-29T05:36:32.264Z,84
2022-11-29T05:37:39.472Z,84
2022-11-29T05:38:54.869Z,84
2022-11-29T05:40:07.890Z,84
2022-11-29T05:41:15.216Z,84
2022-11-29T05:42:32.848Z,84
2022-11-29T05:43:46.081Z,84
2022-11-29T05:44:53.368Z,84
2022-11-29T05:46:00.685Z,84
2022-11-29T05:47:18.048Z,84
2022-11-29T05:48:25.392Z,84
2022-11-29T05:49:37.857Z,84
2022-11-29T05:50:55.388Z,84
2022-11-29T05:52:13.120Z,84
2022-11-29T05:53:30.369Z,84
2022-11-29T05:54:40.561Z,84
2022-11-29T05:55:57.928Z,84
2022-11-29T05:57:13.085Z,84
2022-11-29T05:58:30.459Z,84
2022-11-29T05:59:35.573Z,84
2022-11-29T06:00:42.672Z,84
2022-11-29T06:01:49.867Z,84
2022-11-29T06:03:05.301Z,84
2022-11-29T06:04:17.696Z,84
2022-11-29T06:05:33.789Z,84
2022-11-29T06:06:40.803Z,84
2022-11-29T06:07:52.921Z,84
2022-11-29T06:09:05.152Z,84
2022-11-29T06:10:17.356Z,84
2022-11-29T06:11:24.460Z,84
2022-11-29T06:12:32.713Z,84
2022-11-29T06:13:39.836Z,84
2022-11-29T06:14:52.002Z,84
2022-11-29T06:15:59.366Z,84
2022-11-29T06:17:14.328Z,83
2022-11-29T06:18:29.541Z,83
2022-11-29T06:19:46.969Z,83
2022-11-29T06:20:59.428Z,83
2022-11-29T06:22:09.109Z,83
2022-11-29T06:23:17.332Z,83
2022-11-29T06:24:29.505Z,83
2022-11-29T06:25:44.828Z,84
2022-11-29T06:27:00.144Z,83
2022-11-29T06:28:12.720Z,83
2022-11-29T06:29:27.520Z,84
2022-11-29T06:30:44.879Z,84
2022-11-29T06:31:57.224Z,83
2022-11-29T06:33:06.753Z,83
2022-11-29T06:34:19.669Z,84
2022-11-29T06:35:29.105Z,83
2022-11-29T06:36:43.902Z,84
2022-11-29T06:38:01.252Z,84
2022-11-29T06:39:11.268Z,83
2022-11-29T06:40:18.367Z,84
2022-11-29T06:41:25.544Z,84
2022-11-29T06:42:32.764Z,84
2022-11-29T06:43:40.000Z,84
2022-11-29T06:44:47.282Z,84
2022-11-29T06:45:54.268Z,84
2022-11-29T06:47:04.444Z,84
2022-11-29T06:48:19.428Z,84
2022-11-29T06:49:29.332Z,84
2022-11-29T06:50:46.955Z,84
2022-11-29T06:51:59.692Z,84
2022-11-29T06:53:17.388Z,84
2022-11-29T06:54:29.632Z,84
2022-11-29T06:55:41.877Z,84
2022-11-29T06:56:49.014Z,84
2022-11-29T06:58:01.228Z,84
2022-11-29T06:59:13.707Z,84
2022-11-29T07:00:20.928Z,84
2022-11-29T07:01:31.113Z,84
2022-11-29T07:02:46.019Z,84
2022-11-29T07:04:01.263Z,84
2022-11-29T07:05:16.447Z,84
2022-11-29T07:06:23.485Z,84
2022-11-29T07:07:30.766Z,84
2022-11-29T07:08:37.974Z,84
2022-11-29T07:09:45.044Z,84
2022-11-29T07:10:55.209Z,84
2022-11-29T07:12:02.533Z,84
2022-11-29T07:13:09.972Z,84
2022-11-29T07:14:17.417Z,84
2022-11-29T07:15:24.643Z,84
2022-11-29T07:16:31.808Z,84
2022-11-29T07:17:46.877Z,84
2022-11-29T07:19:04.400Z,84
2022-11-29T07:20:16.479Z,84
2022-11-29T07:21:33.853Z,84
2022-11-29T07:22:51.256Z,84
2022-11-29T07:24:00.920Z,84
2022-11-29T07:25:13.095Z,84
2022-11-29T07:26:30.284Z,84
2022-11-29T07:27:42.613Z,84
2022-11-29T07:28:57.456Z,84
2022-11-29T07:30:07.708Z,84
2022-11-29T07:31:20.244Z,84
2022-11-29T07:32:32.413Z,83
2022-11-29T07:33:42.100Z,83
2022-11-29T07:34:54.846Z,83
2022-11-29T07:36:04.536Z,83
2022-11-29T07:37:22.174Z,83
2022-11-29T07:38:34.393Z,83
2022-11-29T07:39:51.857Z,83
2022-11-29T07:41:09.757Z,83
2022-11-29T07:42:27.335Z,83
2022-11-29T07:43:39.847Z,83
2022-11-29T07:44:52.356Z,83
2022-11-29T07:46:04.619Z,83
2022-11-29T07:47:11.557Z,83
2022-11-29T07:48:19.104Z,83
2022-11-29T07:49:26.496Z,83
2022-11-29T07:50:33.875Z,83
2022-11-29T07:51:41.136Z,83
2022-11-29T07:52:49.165Z,82
2022-11-29T07:53:56.101Z,83
2022-11-29T07:55:03.246Z,83
2022-11-29T07:56:10.785Z,83
2022-11-29T07:57:17.836Z,83
2022-11-29T07:58:24.954Z,83
2022-11-29T07:59:32.430Z,83
2022-11-29T08:00:39.761Z,83
2022-11-29T08:01:46.959Z,83
2022-11-29T08:02:54.347Z,83
2022-11-29T08:04:01.707Z,83
2022-11-29T08:05:08.643Z,83
2022-11-29T08:06:15.767Z,83
2022-11-29T08:07:28.118Z,83
2022-11-29T08:08:39.191Z,83
2022-11-29T08:09:42.570Z,83
2022-11-29T08:10:49.501Z,83
2022-11-29T08:11:56.704Z,83
2022-11-29T08:13:03.765Z,83
2022-11-29T08:14:10.745Z,82
2022-11-29T08:15:17.904Z,83
2022-11-29T08:16:25.088Z,83
2022-11-29T08:17:32.554Z,83
2022-11-29T08:18:39.976Z,82
2022-11-29T08:19:46.981Z,82
2022-11-29T08:20:54.200Z,82
2022-11-29T08:22:01.300Z,82
2022-11-29T08:23:08.676Z,82
2022-11-29T08:24:15.888Z,82
2022-11-29T08:25:23.021Z,82
2022-11-29T08:26:31.728Z,82
2022-11-29T08:27:37.343Z,82
2022-11-29T08:28:44.539Z,82
2022-11-29T08:29:54.206Z,82
2022-11-29T08:31:01.438Z,82
2022-11-29T08:32:08.511Z,82
2022-11-29T08:33:15.443Z,82
2022-11-29T08:34:22.609Z,82
2022-11-29T08:35:29.685Z,82
2022-11-29T08:36:37.092Z,82
2022-11-29T08:37:44.056Z,81
2022-11-29T08:38:55.373Z,81
2022-11-29T08:39:58.392Z,81
2022-11-29T08:41:05.464Z,81
2022-11-29T08:42:12.626Z,81
2022-11-29T08:43:19.636Z,82
2022-11-29T08:44:26.727Z,82
2022-11-29T08:45:34.019Z,82
2022-11-29T08:46:41.105Z,81
2022-11-29T08:47:53.452Z,81
2022-11-29T08:49:00.448Z,81
2022-11-29T08:50:07.686Z,81
2022-11-29T08:51:14.644Z,81
2022-11-29T08:52:21.898Z,81
2022-11-29T08:53:34.131Z,81
2022-11-29T08:54:46.417Z,81
2022-11-29T08:55:54.375Z,81
2022-11-29T08:57:38.907Z,81
2022-11-29T08:58:08.864Z,80
2022-11-29T08:59:15.743Z,80
2022-11-29T09:00:22.910Z,80
2022-11-29T09:01:30.102Z,80
2022-11-29T09:02:37.368Z,80
2022-11-29T09:03:44.427Z,80
2022-11-29T09:04:56.818Z,81
2022-11-29T09:06:07.623Z,81
2022-11-29T09:07:15.642Z,81
2022-11-29T09:08:22.383Z,81
2022-11-29T09:09:29.705Z,81
2022-11-29T09:10:36.745Z,81
2022-11-29T09:11:48.176Z,81
2022-11-29T09:12:51.101Z,81
2022-11-29T09:13:58.342Z,81
2022-11-29T09:15:05.386Z,80
2022-11-29T09:16:13.415Z,80
2022-11-29T09:17:20.522Z,80
2022-11-29T09:18:27.653Z,80
2022-11-29T09:19:34.842Z,80
2022-11-29T09:20:42.022Z,80
2022-11-29T09:21:49.174Z,80
2022-11-29T09:22:56.251Z,80
2022-11-29T09:24:03.441Z,80
2022-11-29T09:25:10.478Z,80
2022-11-29T09:26:17.469Z,80
2022-11-29T09:27:24.681Z,80
2022-11-29T09:28:31.821Z,80
2022-11-29T09:29:38.934Z,80
2022-11-29T09:30:46.047Z,80
2022-11-29T09:31:53.379Z,80
2022-11-29T09:33:00.358Z,80
2022-11-29T09:34:07.443Z,80
2022-11-29T09:35:17.551Z,80
2022-11-29T09:36:28.350Z,79
2022-11-29T09:37:31.863Z,79
2022-11-29T09:38:39.013Z,79
2022-11-29T09:39:46.113Z,79
2022-11-29T09:40:53.221Z,79
2022-11-29T09:42:00.494Z,79
2022-11-29T09:43:14.058Z,79
2022-11-29T09:44:26.232Z,79
2022-11-29T09:45:41.128Z,79
2022-11-29T09:46:48.456Z,79
2022-11-29T09:48:06.159Z,79
2022-11-29T09:49:18.673Z,79
2022-11-29T09:50:33.364Z,79
2022-11-29T09:51:44.139Z,79
2022-11-29T09:52:52.867Z,79
2022-11-29T09:54:10.519Z,79
2022-11-29T09:55:25.782Z,78
2022-11-29T09:56:43.134Z,78
2022-11-29T09:57:50.369Z,78
2022-11-29T09:58:57.436Z,78
2022-11-29T10:00:10.003Z,78
2022-11-29T10:01:20.203Z,78
2022-11-29T10:02:27.480Z,78
2022-11-29T10:03:44.807Z,78
2022-11-29T10:04:58.003Z,78
2022-11-29T10:06:10.516Z,78
2022-11-29T10:07:22.715Z,78
2022-11-29T10:08:37.843Z,78
2022-11-29T10:09:48.001Z,77
2022-11-29T10:11:00.148Z,78
2022-11-29T10:12:12.477Z,77
2022-11-29T10:13:22.700Z,77
2022-11-29T10:14:29.926Z,77
2022-11-29T10:15:42.157Z,77
2022-11-29T10:16:50.249Z,77
2022-11-29T10:17:57.558Z,77
2022-11-29T10:19:12.949Z,77
2022-11-29T10:20:28.876Z,76
2022-11-29T10:21:36.636Z,76
2022-11-29T10:22:43.746Z,76
2022-11-29T10:23:59.200Z,76
2022-11-29T10:25:06.160Z,76
2022-11-29T10:26:13.139Z,76
2022-11-29T10:27:20.328Z,76
2022-11-29T10:28:27.608Z,76
2022-11-29T10:29:34.699Z,75
2022-11-29T10:30:41.908Z,75
2022-11-29T10:31:49.022Z,75
2022-11-29T10:32:56.174Z,75
2022-11-29T10:34:03.306Z,75
2022-11-29T10:35:16.279Z,75
2022-11-29T10:36:23.486Z,76
2022-11-29T10:37:33.268Z,76
2022-11-29T10:38:42.750Z,76
2022-11-29T10:39:50.332Z,76
2022-11-29T10:40:59.155Z,75
2022-11-29T10:42:09.502Z,75
2022-11-29T10:43:17.258Z,75
2022-11-29T10:44:24.519Z,76
2022-11-29T10:45:31.963Z,76
2022-11-29T10:46:44.693Z,75
2022-11-29T10:47:52.354Z,75
2022-11-29T10:49:02.556Z,75
2022-11-29T10:50:09.687Z,75
2022-11-29T10:51:16.769Z,75
2022-11-29T10:52:24.122Z,75
2022-11-29T10:53:31.178Z,75
2022-11-29T10:54:43.388Z,74
2022-11-29T10:55:50.152Z,74
2022-11-29T10:57:05.538Z,74
2022-11-29T10:58:22.044Z,73
2022-11-29T10:59:30.511Z,73
2022-11-29T11:00:38.567Z,73
2022-11-29T11:01:46.031Z,73
2022-11-29T11:02:53.178Z,73
2022-11-29T11:04:00.458Z,72
2022-11-29T11:05:07.733Z,72
2022-11-29T11:06:14.983Z,72
2022-11-29T11:07:22.011Z,72
2022-11-29T11:08:34.363Z,73
2022-11-29T11:09:41.483Z,72
2022-11-29T11:10:53.745Z,72
2022-11-29T11:11:58.375Z,72
2022-11-29T11:13:05.429Z,72
2022-11-29T11:14:12.535Z,72
2022-11-29T11:15:24.730Z,72
2022-11-29T11:16:36.971Z,71
2022-11-29T11:17:39.373Z,71
2022-11-29T11:18:46.625Z,71
2022-11-29T11:19:53.928Z,71
2022-11-29T11:21:01.024Z,71
2022-11-29T11:22:08.280Z,71
2022-11-29T11:23:15.541Z,72
2022-11-29T11:24:27.708Z,71
2022-11-29T11:25:34.990Z,71
2022-11-29T11:26:42.024Z,71
2022-11-29T11:27:49.204Z,71
2022-11-29T11:28:56.332Z,71
2022-11-29T11:30:03.444Z,71
2022-11-29T11:31:16.010Z,71
2022-11-29T11:32:33.776Z,70
2022-11-29T11:33:41.176Z,70
2022-11-29T11:34:48.640Z,71
2022-11-29T11:35:55.809Z,71
2022-11-29T11:37:06.160Z,71
2022-11-29T11:38:18.733Z,71
2022-11-29T11:39:25.860Z,71
2022-11-29T11:40:33.032Z,70
2022-11-29T11:41:40.248Z,70
2022-11-29T11:42:52.554Z,71
2022-11-29T11:44:07.097Z,71
2022-11-29T11:45:09.805Z,71
2022-11-29T11:46:18.174Z,71
2022-11-29T11:47:24.188Z,71
2022-11-29T11:48:31.653Z,71
2022-11-29T11:49:38.767Z,71
2022-11-29T11:50:51.008Z,71
2022-11-29T11:51:58.034Z,71
2022-11-29T11:53:05.277Z,71
2022-11-29T11:54:20.284Z,71
2022-11-29T11:55:27.641Z,71
2022-11-29T11:56:37.704Z,72
2022-11-29T11:57:45.333Z,72
2022-11-29T11:58:53.436Z,72
2022-11-29T12:00:05.155Z,72
2022-11-29T12:01:07.847Z,72
2022-11-29T12:02:20.231Z,72
2022-11-29T12:03:27.587Z,72
2022-11-29T12:04:39.773Z,72
2022-11-29T12:05:46.949Z,71
2022-11-29T12:06:54.084Z,71
2022-11-29T12:08:08.295Z,71
2022-11-29T12:09:13.884Z,72
2022-11-29T12:10:31.064Z,72
2022-11-29T12:11:38.381Z,71
2022-11-29T12:12:55.632Z,71
2022-11-29T12:14:02.780Z,71
2022-11-29T12:15:10.001Z,71
2022-11-29T12:16:27.588Z,71
2022-11-29T12:17:34.733Z,71
2022-11-29T12:18:42.307Z,71
2022-11-29T12:19:52.165Z,71
2022-11-29T12:20:59.209Z,72
2022-11-29T12:22:15.180Z,71
2022-11-29T12:23:22.632Z,72
2022-11-29T12:24:32.225Z,71
2022-11-29T12:25:39.479Z,71
2022-11-29T12:26:59.468Z,71
2022-11-29T12:27:58.768Z,71
2022-11-29T12:29:05.973Z,71
2022-11-29T12:30:16.071Z,70
2022-11-29T12:31:23.341Z,70
2022-11-29T12:32:46.084Z,70
2022-11-29T12:33:58.677Z,69
2022-11-29T12:35:18.923Z,70
2022-11-29T12:36:33.896Z,70
2022-11-29T12:37:49.081Z,70
2022-11-29T12:39:01.393Z,70
2022-11-29T12:40:19.382Z,71
2022-11-29T12:41:33.786Z,71
2022-11-29T12:42:47.243Z,71
2022-11-29T12:43:59.761Z,70
2022-11-29T12:45:16.967Z,70
2022-11-29T12:46:24.901Z,70
2022-11-29T12:47:36.336Z,71
2022-11-29T12:48:42.053Z,70
2022-11-29T12:49:59.401Z,70
2022-11-29T12:51:11.405Z,70
2022-11-29T12:52:28.730Z,70
2022-11-29T12:53:41.018Z,71
2022-11-29T12:54:48.471Z,71
2022-11-29T12:56:03.499Z,71
2022-11-29T12:57:15.282Z,71
2022-11-29T12:58:22.616Z,70
2022-11-29T12:59:35.195Z,70
2022-11-29T13:00:52.789Z,70
2022-11-29T13:02:10.575Z,70
2022-11-29T13:03:27.770Z,70
2022-11-29T13:04:43.114Z,70
2022-11-29T13:05:55.375Z,70
2022-11-29T13:07:08.958Z,70
2022-11-29T13:08:22.911Z,69
2022-11-29T13:09:35.913Z,69
2022-11-29T13:10:48.470Z,69
2022-11-29T13:12:06.126Z,69
2022-11-29T13:13:16.509Z,69
2022-11-29T13:14:42.436Z,69
2022-11-29T13:15:47.722Z,69
2022-11-29T13:17:05.338Z,69
2022-11-29T13:18:12.629Z,69
2022-11-29T13:19:29.905Z,69
2022-11-29T13:20:42.253Z,69
2022-11-29T13:21:54.567Z,70
2022-11-29T13:23:12.134Z,70
2022-11-29T13:24:21.930Z,70
2022-11-29T13:25:28.981Z,70
2022-11-29T13:26:41.785Z,70
2022-11-29T13:27:48.953Z,71
2022-11-29T13:29:01.258Z,71
2022-11-29T13:30:09.333Z,71
2022-11-29T13:31:17.812Z,72
2022-11-29T13:32:25.407Z,71
2022-11-29T13:33:35.169Z,71
2022-11-29T13:34:50.049Z,72
2022-11-29T13:35:57.238Z,72
2022-11-29T13:37:09.497Z,72
2022-11-29T13:38:22.069Z,72
2022-11-29T13:39:34.323Z,72
2022-11-29T13:40:46.549Z,72
2022-11-29T13:42:03.822Z,72
2022-11-29T13:43:14.053Z,72
2022-11-29T13:44:23.658Z,72
2022-11-29T13:45:40.925Z,71
2022-11-29T13:46:48.231Z,71
2022-11-29T13:48:00.531Z,71
2022-11-29T13:49:07.543Z,71
2022-11-29T13:50:22.689Z,71
2022-11-29T13:51:40.014Z,72
2022-11-29T13:52:47.343Z,71
2022-11-29T13:53:54.425Z,72
2022-11-29T13:55:01.514Z,72
2022-11-29T13:56:14.581Z,71
2022-11-29T13:57:43.109Z,71
2022-11-29T13:58:47.429Z,71
2022-11-29T13:59:58.005Z,71
2022-11-29T14:01:05.245Z,72
2022-11-29T14:02:12.593Z,71
2022-11-29T14:03:29.931Z,71
2022-11-29T14:04:37.320Z,71
2022-11-29T14:05:44.248Z,71
2022-11-29T14:06:53.957Z,71
2022-11-29T14:08:11.787Z,71
2022-11-29T14:09:27.169Z,72
2022-11-29T14:10:37.259Z,72
2022-11-29T14:11:44.382Z,72
2022-11-29T14:12:51.587Z,72
2022-11-29T14:13:58.737Z,72
2022-11-29T14:15:13.884Z,73
2022-11-29T14:16:26.237Z,73
2022-11-29T14:17:38.493Z,73
2022-11-29T14:18:55.700Z,73
2022-11-29T14:20:07.968Z,73
2022-11-29T14:21:25.537Z,73
2022-11-29T14:22:42.864Z,73
2022-11-29T14:23:55.262Z,73
2022-11-29T14:25:11.745Z,73
2022-11-29T14:26:09.736Z,73
2022-11-29T14:27:22.640Z,73
2022-11-29T14:28:29.629Z,73
2022-11-29T14:29:39.323Z,73
2022-11-29T14:30:51.874Z,73
2022-11-29T14:31:58.703Z,72
2022-11-29T14:33:05.831Z,72
2022-11-29T14:34:21.074Z,72
2022-11-29T14:35:27.971Z,73
2022-11-29T14:36:42.783Z,73
2022-11-29T14:37:50.051Z,73
2022-11-29T14:39:07.726Z,73
2022-11-29T14:40:23.174Z,73
2022-11-29T14:41:35.652Z,74
2022-11-29T14:42:52.972Z,74
2022-11-29T14:44:00.142Z,74
2022-11-29T14:45:09.852Z,74
2022-11-29T14:46:29.367Z,74
2022-11-29T14:47:34.703Z,74
2022-11-29T14:48:41.823Z,74
2022-11-29T14:49:49.035Z,75
2022-11-29T14:50:56.067Z,75
2022-11-29T14:52:13.342Z,75
2022-11-29T14:53:25.771Z,75
2022-11-29T14:54:33.158Z,75
2022-11-29T14:55:40.450Z,75
2022-11-29T14:56:47.538Z,75
2022-11-29T14:57:54.667Z,75
2022-11-29T14:59:04.905Z,75
2022-11-29T15:00:22.543Z,75
2022-11-29T15:01:39.997Z,75
2022-11-29T15:02:47.507Z,76
2022-11-29T15:03:54.709Z,76
2022-11-29T15:05:01.954Z,76
2022-11-29T15:06:08.988Z,76
2022-11-29T15:07:19.210Z,76
2022-11-29T15:08:34.298Z,77
2022-11-29T15:09:47.446Z,77
2022-11-29T15:10:54.791Z,77
2022-11-29T15:12:07.039Z,77
2022-11-29T15:13:13.978Z,77
2022-11-29T15:14:21.094Z,77
2022-11-29T15:15:38.482Z,77
2022-11-29T15:16:50.800Z,77
2022-11-29T15:18:08.066Z,78
2022-11-29T15:19:23.334Z,78
2022-11-29T15:20:35.491Z,78
2022-11-29T15:21:48.051Z,78
2022-11-29T15:23:03.503Z,78
2022-11-29T15:24:10.618Z,78
2022-11-29T15:25:17.608Z,78
2022-11-29T15:26:27.329Z,78
2022-11-29T15:27:38.802Z,79
2022-11-29T15:28:41.803Z,79
2022-11-29T15:29:48.777Z,79
2022-11-29T15:30:55.970Z,79
2022-11-29T15:32:06.193Z,79
2022-11-29T15:33:13.134Z,79
2022-11-29T15:34:20.308Z,79
2022-11-29T15:35:32.506Z,79
2022-11-29T15:36:39.730Z,79
2022-11-29T15:37:47.014Z,79
2022-11-29T15:38:54.098Z,80
2022-11-29T15:40:01.303Z,80
2022-11-29T15:41:13.919Z,80
2022-11-29T15:42:27.224Z,80
2022-11-29T15:43:31.250Z,80
2022-11-29T15:44:38.289Z,80
2022-11-29T15:45:48.526Z,80
2022-11-29T15:46:55.626Z,80
2022-11-29T15:48:13.339Z,81
2022-11-29T15:49:23.246Z,81
2022-11-29T15:50:30.125Z,81
2022-11-29T15:51:37.279Z,81
2022-11-29T15:52:44.526Z,81
2022-11-29T15:53:53.951Z,81
2022-11-29T15:54:58.777Z,81
2022-11-29T15:56:06.207Z,81
2022-11-29T15:57:18.470Z,81
2022-11-29T15:58:28.202Z,81
2022-11-29T15:59:35.601Z,81
2022-11-29T16:00:50.713Z,82
2022-11-29T16:01:58.024Z,82
2022-11-29T16:03:05.132Z,82
2022-11-29T16:04:12.525Z,82
2022-11-29T16:05:19.610Z,82
2022-11-29T16:06:26.791Z,82
2022-11-29T16:07:44.292Z,82
2022-11-29T16:08:51.365Z,82
2022-11-29T16:09:58.454Z,82
2022-11-29T16:11:05.567Z,82
2022-11-29T16:12:12.602Z,83
2022-11-29T16:13:19.742Z,83
2022-11-29T16:14:31.989Z,83
2022-11-29T16:15:39.168Z,83
2022-11-29T16:16:46.492Z,83
2022-11-29T16:17:53.418Z,83
2022-11-29T16:19:00.569Z,82
2022-11-29T16:20:12.746Z,82
2022-11-29T16:21:19.816Z,82
2022-11-29T16:22:27.000Z,83
2022-11-29T16:23:34.059Z,83
2022-11-29T16:24:41.246Z,83
2022-11-29T16:25:53.945Z,83
2022-11-29T16:27:09.433Z,83
2022-11-29T16:28:16.290Z,83
2022-11-29T16:29:23.418Z,83
2022-11-29T16:30:30.621Z,83
2022-11-29T16:31:37.856Z,83
2022-11-29T16:32:45.109Z,83
2022-11-29T16:33:52.178Z,84
2022-11-29T16:34:59.231Z,83
2022-11-29T16:36:16.418Z,84
2022-11-29T16:37:26.644Z,84
2022-11-29T16:38:33.902Z,83
2022-11-29T16:39:41.086Z,84
2022-11-29T16:40:48.124Z,84
2022-11-29T16:42:03.146Z,84
2022-11-29T16:43:18.033Z,84
2022-11-29T16:44:25.229Z,84